Time;durP1;ratioP1;P1;durP2;ratioP2;P2;SDS_P1;SDS_P2;PMS_P1;PMS_P2;Temp;Humidity;BMP_temperature;BMP_pressure;BME280_temperature;BME280_humidity;BME280_pressure;Samples;Min_cycle;Max_cycle;Signal;HPM_P1;HPM_P2
2023/04/07 00:01:54;;;;;;;38.83;16.83;;;4.20;99.90;;;;;;6178377;23;20120;-80
2023/04/07 00:04:21;;;;;;;37.15;16.92;;;4.20;99.90;;;;;;6197596;23;20028;-80
2023/04/07 00:06:49;;;;;;;40.40;17.20;;;4.20;99.90;;;;;;6173572;23;20107;-80
2023/04/07 00:09:16;;;;;;;39.72;18.75;;;4.20;99.90;;;;;;6198473;23;20031;-80
2023/04/07 00:11:43;;;;;;;40.17;18.40;;;4.20;99.90;;;;;;6180465;23;20021;-80
2023/04/07 00:14:10;;;;;;;40.72;17.88;;;4.20;99.90;;;;;;6174129;23;20106;-80
2023/04/07 00:16:37;;;;;;;41.30;17.95;;;4.20;99.90;;;;;;6174414;23;20031;-80
2023/04/07 00:19:04;;;;;;;42.35;18.38;;;4.20;99.90;;;;;;6176460;23;20419;-80
2023/04/07 00:21:31;;;;;;;40.88;17.70;;;4.20;99.90;;;;;;6179417;23;20029;-80
2023/04/07 00:23:58;;;;;;;36.28;17.92;;;4.20;99.90;;;;;;6175671;23;20028;-80
2023/04/07 00:26:30;;;;;;;41.40;17.83;;;4.20;99.90;;;;;;6179744;23;20124;-80
2023/04/07 00:28:58;;;;;;;38.13;18.25;;;4.20;99.90;;;;;;6173675;23;20058;-80
2023/04/07 00:31:25;;;;;;;38.38;16.83;;;4.20;99.90;;;;;;6152737;23;20679;-80
2023/04/07 00:33:54;;;;;;;38.95;17.80;;;4.20;99.90;;;;;;6178802;23;20503;-80
2023/04/07 00:36:22;;;;;;;44.28;18.33;;;4.20;99.90;;;;;;6180443;23;20020;-80
2023/04/07 00:38:49;;;;;;;40.38;18.30;;;4.10;99.90;;;;;;6181972;23;20027;-80
2023/04/07 00:41:16;;;;;;;45.95;19.98;;;4.20;99.90;;;;;;6178468;23;20697;-80
2023/04/07 00:43:44;;;;;;;38.97;16.75;;;4.20;99.90;;;;;;6177890;23;20030;-80
2023/04/07 00:46:11;;;;;;;37.03;17.90;;;4.10;99.90;;;;;;6183715;23;20035;-80
2023/04/07 00:48:39;;;;;;;39.28;17.92;;;4.10;99.90;;;;;;6207334;23;20099;-80
2023/04/07 00:51:06;;;;;;;38.33;18.75;;;4.10;99.90;;;;;;6178825;23;20035;-81
2023/04/07 00:53:33;;;;;;;41.95;18.17;;;4.10;99.90;;;;;;6182403;23;20020;-80
2023/04/07 00:56:00;;;;;;;36.28;16.55;;;4.10;99.90;;;;;;6180003;23;20028;-80
2023/04/07 00:58:27;;;;;;;37.40;17.35;;;4.20;99.90;;;;;;6184927;23;20024;-80
2023/04/07 01:01:12;;;;;;;36.17;16.35;;;4.10;99.90;;;;;;6179189;23;20356;-80
2023/04/07 01:03:51;;;;;;;34.47;15.32;;;4.10;99.90;;;;;;6204458;23;20515;-80
2023/04/07 01:06:23;;;;;;;34.90;14.57;;;4.10;99.90;;;;;;6175194;23;20024;-80
2023/04/07 01:08:57;;;;;;;34.95;16.00;;;4.10;99.90;;;;;;6176639;23;20518;-80
2023/04/07 01:11:31;;;;;;;34.00;16.60;;;4.10;99.90;;;;;;6178931;23;20035;-80
2023/04/07 01:13:59;;;;;;;35.97;15.75;;;4.20;99.90;;;;;;6177447;23;20024;-80
2023/04/07 01:16:46;;;;;;;37.63;16.58;;;4.10;99.90;;;;;;6180373;23;20024;-80
2023/04/07 01:19:37;;;;;;;36.08;15.52;;;4.10;99.90;;;;;;6178850;23;20028;-80
2023/04/07 01:22:16;;;;;;;35.13;15.70;;;4.10;99.90;;;;;;6180661;23;20426;-80
2023/04/07 01:25:15;;;;;;;33.95;15.98;;;4.10;99.90;;;;;;6178473;23;20032;-80
2023/04/07 01:28:09;;;;;;;33.10;15.02;;;4.10;99.90;;;;;;6206242;23;20398;-80
2023/04/07 01:30:40;;;;;;;37.30;15.88;;;4.10;99.90;;;;;;6202700;23;20111;-80
2023/04/07 01:33:10;;;;;;;36.85;15.85;;;4.10;99.90;;;;;;6180299;23;20356;-80
2023/04/07 01:35:39;;;;;;;30.35;15.15;;;4.10;99.90;;;;;;6179224;23;20024;-80
2023/04/07 01:38:08;;;;;;;31.95;15.27;;;4.10;99.90;;;;;;6180169;23;20059;-80
2023/04/07 01:40:36;;;;;;;34.83;15.60;;;4.10;99.90;;;;;;6179799;23;20580;-80
2023/04/07 01:43:04;;;;;;;35.65;15.85;;;4.10;99.90;;;;;;6181790;23;20066;-80
2023/04/07 01:45:34;;;;;;;35.03;15.90;;;4.10;99.90;;;;;;6180574;23;20044;-80
2023/04/07 01:48:05;;;;;;;37.20;17.23;;;4.10;99.90;;;;;;6206678;23;20051;-80
2023/04/07 01:50:32;;;;;;;32.90;16.10;;;4.10;99.90;;;;;;6182922;23;20422;-80
2023/04/07 01:53:00;;;;;;;33.10;14.15;;;4.10;99.90;;;;;;6178736;23;20439;-80
2023/04/07 01:55:28;;;;;;;35.50;15.38;;;4.00;99.90;;;;;;6180427;23;20016;-80
2023/04/07 01:58:05;;;;;;;33.53;16.02;;;4.10;99.90;;;;;;6181328;23;20022;-80
2023/04/07 02:00:34;;;;;;;34.03;15.32;;;4.00;99.90;;;;;;6183517;23;20027;-79
2023/04/07 02:03:19;;;;;;;34.50;15.30;;;4.10;99.90;;;;;;6207886;23;20020;-80
2023/04/07 02:05:56;;;;;;;34.47;15.10;;;4.10;99.90;;;;;;6180124;23;20074;-80
2023/04/07 02:08:27;;;;;;;30.48;13.70;;;4.10;99.90;;;;;;6203890;23;20074;-80
2023/04/07 02:10:58;;;;;;;37.00;16.33;;;4.10;99.90;;;;;;6180478;23;20074;-80
2023/04/07 02:13:33;;;;;;;32.15;15.27;;;4.10;99.90;;;;;;6179573;23;20066;-80
2023/04/07 02:16:01;;;;;;;36.45;15.40;;;4.00;99.90;;;;;;6178705;23;20024;-80
2023/04/07 02:18:31;;;;;;;38.47;16.23;;;4.00;99.90;;;;;;6205066;23;20483;-80
2023/04/07 02:21:01;;;;;;;33.00;14.80;;;4.00;99.90;;;;;;6177755;23;20024;-80
2023/04/07 02:23:29;;;;;;;39.60;15.00;;;4.00;99.90;;;;;;6181290;23;20136;-80
2023/04/07 02:25:57;;;;;;;36.00;14.82;;;4.10;99.90;;;;;;6179756;23;20441;-80
2023/04/07 02:28:24;;;;;;;30.38;14.55;;;4.00;99.90;;;;;;6177283;23;20743;-79
2023/04/07 02:30:51;;;;;;;33.47;15.30;;;4.00;99.90;;;;;;6201418;23;20123;-80
2023/04/07 02:33:18;;;;;;;37.70;15.85;;;4.00;99.90;;;;;;6176325;23;20127;-80
2023/04/07 02:35:45;;;;;;;34.05;15.27;;;4.00;99.90;;;;;;6179045;23;20483;-79
2023/04/07 02:38:12;;;;;;;37.40;15.70;;;3.90;99.90;;;;;;6177516;23;20020;-79
2023/04/07 02:40:39;;;;;;;32.90;14.75;;;3.90;99.90;;;;;;6177566;23;20024;-80
2023/04/07 02:43:06;;;;;;;35.83;16.15;;;3.90;99.90;;;;;;6178191;23;20086;-80
2023/04/07 02:45:33;;;;;;;32.80;15.48;;;4.00;99.90;;;;;;6183657;23;20024;-80
2023/04/07 02:48:02;;;;;;;35.35;15.90;;;4.00;99.90;;;;;;6185110;23;20028;-80
2023/04/07 02:50:29;;;;;;;33.83;14.88;;;4.00;99.90;;;;;;6179887;23;20135;-80
2023/04/07 02:52:57;;;;;;;33.38;15.15;;;4.00;99.90;;;;;;6180787;23;20047;-80
2023/04/07 02:55:24;;;;;;;37.15;16.63;;;4.00;99.90;;;;;;6185508;23;20443;-80
2023/04/07 02:57:51;;;;;;;36.50;16.20;;;4.00;99.90;;;;;;6187681;23;20119;-80
2023/04/07 03:00:41;;;;;;;30.83;14.63;;;3.90;99.90;;;;;;6188284;23;20039;-80
2023/04/07 03:03:20;;;;;;;31.67;13.57;;;4.00;99.90;;;;;;6209257;23;20352;-80
2023/04/07 03:06:14;;;;;;;28.75;13.95;;;4.00;99.90;;;;;;6208841;23;20020;-80
2023/04/07 03:08:56;;;;;;;30.45;14.68;;;4.00;99.90;;;;;;6202274;23;20024;-80
2023/04/07 03:11:23;;;;;;;31.70;14.27;;;3.90;99.90;;;;;;6211204;23;20251;-80
2023/04/07 03:13:50;;;;;;;33.38;14.45;;;4.00;99.90;;;;;;6184244;23;20139;-80
2023/04/07 03:16:18;;;;;;;29.13;13.35;;;4.00;99.90;;;;;;6181694;23;20020;-80
2023/04/07 03:18:57;;;;;;;32.50;13.68;;;3.90;99.90;;;;;;6188322;23;20020;-80
2023/04/07 03:21:25;;;;;;;30.40;13.45;;;4.00;99.90;;;;;;6207868;23;20051;-80
2023/04/07 03:23:52;;;;;;;27.88;13.40;;;4.00;99.90;;;;;;6180445;23;20039;-80
2023/04/07 03:26:20;;;;;;;29.35;13.35;;;3.90;99.90;;;;;;6179593;23;20427;-80
2023/04/07 03:28:49;;;;;;;31.00;13.93;;;3.90;99.90;;;;;;6181394;23;20024;-80
2023/04/07 03:31:17;;;;;;;30.58;13.57;;;4.00;99.90;;;;;;6182603;23;20062;-80
2023/04/07 03:33:46;;;;;;;30.77;13.95;;;3.90;99.90;;;;;;6184453;23;20020;-80
2023/04/07 03:36:13;;;;;;;28.00;12.70;;;3.90;99.90;;;;;;6181815;23;20024;-80
2023/04/07 03:38:40;;;;;;;32.70;14.77;;;3.90;99.90;;;;;;6183749;23;20066;-80
2023/04/07 03:41:08;;;;;;;31.05;14.00;;;3.90;99.90;;;;;;6178788;23;20024;-80
2023/04/07 03:43:35;;;;;;;32.03;13.68;;;3.90;99.90;;;;;;6179137;23;20089;-80
2023/04/07 03:46:02;;;;;;;30.70;14.10;;;3.90;99.90;;;;;;6179187;23;20447;-80
2023/04/07 03:48:30;;;;;;;31.20;14.55;;;3.90;99.90;;;;;;6179102;23;20024;-80
2023/04/07 03:51:05;;;;;;;32.25;13.93;;;3.90;99.90;;;;;;6178948;23;20375;-80
2023/04/07 03:53:34;;;;;;;32.05;13.45;;;3.90;99.90;;;;;;6204077;23;20024;-80
2023/04/07 03:56:12;;;;;;;29.90;12.80;;;3.90;99.90;;;;;;6181750;23;20024;-80
2023/04/07 03:58:48;;;;;;;32.30;14.82;;;3.90;99.90;;;;;;6179766;23;20024;-80
2023/04/07 04:01:26;;;;;;;27.92;13.43;;;3.90;99.90;;;;;;6182924;23;20051;-80
2023/04/07 04:03:55;;;;;;;29.27;13.30;;;3.90;99.90;;;;;;6177842;23;20485;-80
2023/04/07 04:06:26;;;;;;;32.97;14.40;;;3.90;99.90;;;;;;6203712;23;20439;-80
2023/04/07 04:09:00;;;;;;;29.35;13.10;;;3.90;99.90;;;;;;6179070;23;20020;-80
2023/04/07 04:11:28;;;;;;;33.25;13.75;;;3.90;99.90;;;;;;6180590;23;20478;-79
2023/04/07 04:13:59;;;;;;;29.05;13.10;;;3.90;99.90;;;;;;6183996;23;20368;-79
2023/04/07 04:16:26;;;;;;;30.90;13.68;;;3.90;99.90;;;;;;6179262;23;20034;-79
2023/04/07 04:18:57;;;;;;;29.92;13.57;;;3.90;99.90;;;;;;6182338;23;20324;-80
2023/04/07 04:21:27;;;;;;;28.48;13.07;;;3.90;99.90;;;;;;6177977;23;20541;-80
2023/04/07 04:23:55;;;;;;;33.22;14.68;;;3.90;99.90;;;;;;6179484;23;20030;-80
2023/04/07 04:26:24;;;;;;;29.83;13.35;;;3.90;99.90;;;;;;6178915;23;20114;-80
2023/04/07 04:28:55;;;;;;;33.00;15.00;;;3.90;99.90;;;;;;6182205;23;20023;-80
2023/04/07 04:31:23;;;;;;;34.90;15.13;;;3.90;99.90;;;;;;6178418;23;20020;-80
2023/04/07 04:33:51;;;;;;;32.60;14.85;;;3.90;99.90;;;;;;6173460;23;20044;-82
2023/04/07 04:36:20;;;;;;;34.03;14.38;;;4.00;99.90;;;;;;6174355;23;20032;-80
2023/04/07 04:38:48;;;;;;;31.40;14.40;;;4.00;99.90;;;;;;6176205;23;20356;-80
2023/04/07 04:41:18;;;;;;;36.38;15.63;;;4.00;99.90;;;;;;6174899;23;20021;-80
2023/04/07 04:43:47;;;;;;;37.10;16.13;;;4.00;99.90;;;;;;6178728;23;20028;-80
2023/04/07 04:46:19;;;;;;;40.67;17.00;;;3.90;99.90;;;;;;6177080;23;20356;-80
2023/04/07 04:48:48;;;;;;;38.92;16.63;;;4.00;99.90;;;;;;6179978;23;20262;-80
2023/04/07 04:51:16;;;;;;;42.95;16.85;;;3.90;99.90;;;;;;6202761;23;20024;-80
2023/04/07 04:53:47;;;;;;;38.83;16.45;;;3.90;99.90;;;;;;6175102;23;20024;-80
2023/04/07 04:56:15;;;;;;;40.95;16.67;;;4.00;99.90;;;;;;6173465;23;20021;-80
2023/04/07 04:58:45;;;;;;;39.42;17.85;;;4.00;99.90;;;;;;6175100;23;20025;-80
2023/04/07 05:01:27;;;;;;;39.50;17.70;;;4.10;99.90;;;;;;6178104;23;20017;-80
2023/04/07 05:04:03;;;;;;;32.83;15.63;;;4.10;99.90;;;;;;6176527;23;20017;-80
2023/04/07 05:06:31;;;;;;;30.98;13.98;;;4.10;99.90;;;;;;6175301;23;20021;-80
2023/04/07 05:09:04;;;;;;;35.15;14.75;;;4.10;99.90;;;;;;6177539;23;20094;-80
2023/04/07 05:11:41;;;;;;;32.63;15.57;;;4.20;99.90;;;;;;6177068;23;20020;-80
2023/04/07 05:14:08;;;;;;;35.50;17.15;;;4.20;99.90;;;;;;6176461;23;20049;-80
2023/04/07 05:16:39;;;;;;;35.00;15.32;;;4.20;99.90;;;;;;6177537;23;20094;-81
2023/04/07 05:19:08;;;;;;;30.85;15.05;;;4.20;99.90;;;;;;6177566;23;20116;-79
2023/04/07 05:21:35;;;;;;;34.65;15.68;;;4.30;99.90;;;;;;6176047;23;20487;-80
2023/04/07 05:24:03;;;;;;;34.53;15.70;;;4.20;99.90;;;;;;6179014;23;20029;-80
2023/04/07 05:26:32;;;;;;;32.70;14.57;;;4.30;99.90;;;;;;6177187;23;20063;-81
2023/04/07 05:29:02;;;;;;;28.10;14.40;;;4.30;99.90;;;;;;6177373;23;20410;-81
2023/04/07 05:31:29;;;;;;;31.90;14.25;;;4.30;99.90;;;;;;6177595;23;20017;-80
2023/04/07 05:33:59;;;;;;;33.70;15.70;;;4.30;99.90;;;;;;6176513;23;20048;-82
2023/04/07 05:36:32;;;;;;;32.75;14.98;;;4.30;99.90;;;;;;6177347;23;20337;-80
2023/04/07 05:38:59;;;;;;;33.88;15.95;;;4.40;99.90;;;;;;6180092;23;20017;-81
2023/04/07 05:41:27;;;;;;;32.17;15.38;;;4.40;99.90;;;;;;6175503;23;20031;-80
2023/04/07 05:43:54;;;;;;;39.00;17.70;;;4.40;99.90;;;;;;6202866;23;20371;-80
2023/04/07 05:46:21;;;;;;;36.45;15.13;;;4.40;99.90;;;;;;6179650;23;20410;-80
2023/04/07 05:48:55;;;;;;;31.38;13.95;;;4.40;99.90;;;;;;6176232;23;20092;-80
2023/04/07 05:51:26;;;;;;;31.88;14.18;;;4.50;99.90;;;;;;6209353;23;20639;-80
2023/04/07 05:53:55;;;;;;;33.38;15.90;;;4.50;99.90;;;;;;6174697;23;20123;-80
2023/04/07 05:56:24;;;;;;;34.00;15.25;;;4.50;99.90;;;;;;6176568;23;20028;-80
2023/04/07 05:58:52;;;;;;;34.40;16.42;;;4.50;99.90;;;;;;6197164;23;20720;-80
2023/04/07 06:01:20;;;;;;;32.95;15.55;;;4.50;99.90;;;;;;6180197;23;20024;-80
2023/04/07 06:03:47;;;;;;;33.97;15.40;;;4.50;99.90;;;;;;6178189;23;20454;-80
2023/04/07 06:06:25;;;;;;;31.73;15.35;;;4.50;99.90;;;;;;6179214;23;20032;-80
2023/04/07 06:08:52;;;;;;;32.90;15.23;;;4.50;99.90;;;;;;6178632;23;20029;-80
2023/04/07 06:11:20;;;;;;;35.42;17.13;;;4.50;99.90;;;;;;6177472;23;20031;-80
2023/04/07 06:13:47;;;;;;;39.75;17.70;;;4.50;99.90;;;;;;6201466;23;20105;-80
2023/04/07 06:16:14;;;;;;;36.03;16.25;;;4.60;99.90;;;;;;6178950;23;20435;-80
2023/04/07 06:18:44;;;;;;;39.92;17.83;;;4.50;99.90;;;;;;6182138;23;20178;-81
2023/04/07 06:21:11;;;;;;;38.40;16.42;;;4.50;99.90;;;;;;6177902;23;20021;-81
2023/04/07 06:23:38;;;;;;;36.08;16.17;;;4.60;99.90;;;;;;6178741;23;20037;-81
2023/04/07 06:26:09;;;;;;;34.28;16.38;;;4.60;99.90;;;;;;6202488;23;20441;-81
2023/04/07 06:28:36;;;;;;;34.83;16.05;;;3.80;99.90;;;;;;6178057;23;20082;-80
2023/04/07 06:31:04;;;;;;;34.65;15.60;;;4.60;99.90;;;;;;6184389;23;20047;-81
2023/04/07 06:33:32;;;;;;;39.97;17.95;;;4.60;99.90;;;;;;6178890;23;20021;-81
2023/04/07 06:35:59;;;;;;;35.63;17.63;;;4.60;99.90;;;;;;6179342;23;20020;-82
2023/04/07 06:38:26;;;;;;;37.90;18.05;;;4.70;99.90;;;;;;6177232;23;20465;-81
2023/04/07 06:40:53;;;;;;;36.63;17.65;;;4.70;99.90;;;;;;6184845;23;20470;-81
2023/04/07 06:43:21;;;;;;;37.47;17.77;;;4.60;99.90;;;;;;6178248;23;20503;-81
2023/04/07 06:45:59;;;;;;;39.17;16.60;;;4.60;99.90;;;;;;6180504;23;20028;-81
2023/04/07 06:48:27;;;;;;;45.88;22.23;;;4.70;99.90;;;;;;6180469;23;20456;-81
2023/04/07 06:50:54;;;;;;;40.22;17.67;;;4.80;99.90;;;;;;6178067;23;20035;-81
2023/04/07 06:53:21;;;;;;;37.70;17.25;;;4.80;99.90;;;;;;6206832;23;20020;-81
2023/04/07 06:55:48;;;;;;;34.10;17.13;;;4.70;99.90;;;;;;6202630;23;20024;-81
2023/04/07 06:58:15;;;;;;;31.02;15.25;;;4.70;99.90;;;;;;6176767;23;20027;-80
2023/04/07 07:00:43;;;;;;;34.00;16.52;;;4.70;99.90;;;;;;6181594;23;20028;-81
2023/04/07 07:03:10;;;;;;;30.83;16.25;;;4.70;99.90;;;;;;6184104;23;20107;-81
2023/04/07 07:05:37;;;;;;;36.40;16.67;;;4.80;99.90;;;;;;6202760;23;20115;-81
2023/04/07 07:08:04;;;;;;;31.10;15.43;;;4.80;99.90;;;;;;6175933;23;20025;-80
2023/04/07 07:10:31;;;;;;;35.83;16.05;;;4.70;99.90;;;;;;6179975;23;20087;-81
2023/04/07 07:12:59;;;;;;;34.55;16.60;;;4.80;99.90;;;;;;6175310;23;20048;-80
2023/04/07 07:15:26;;;;;;;39.70;16.25;;;4.90;99.90;;;;;;6176828;23;20044;-80
2023/04/07 07:17:53;;;;;;;37.58;18.48;;;4.90;99.90;;;;;;6175476;23;20684;-81
2023/04/07 07:20:22;;;;;;;37.22;17.63;;;5.00;99.90;;;;;;6175796;23;20337;-81
2023/04/07 07:22:49;;;;;;;37.75;17.67;;;5.10;99.90;;;;;;6172291;23;20360;-81
2023/04/07 07:25:17;;;;;;;37.60;17.35;;;5.00;99.90;;;;;;6175258;23;20021;-81
2023/04/07 07:27:44;;;;;;;34.58;15.07;;;5.00;99.90;;;;;;6174024;23;20406;-81
2023/04/07 07:30:12;;;;;;;30.65;14.75;;;5.10;99.90;;;;;;6176068;23;20740;-80
2023/04/07 07:32:39;;;;;;;30.58;15.07;;;5.10;99.90;;;;;;6176197;23;20079;-81
2023/04/07 07:35:07;;;;;;;34.33;16.23;;;5.20;99.90;;;;;;6182245;23;20024;-80
2023/04/07 07:37:34;;;;;;;29.30;14.73;;;4.60;99.90;;;;;;6179595;23;20031;-80
2023/04/07 07:40:01;;;;;;;32.53;15.23;;;5.30;99.90;;;;;;6183341;23;20036;-81
2023/04/07 07:42:30;;;;;;;30.63;14.77;;;5.40;99.90;;;;;;6176595;23;20090;-81
2023/04/07 07:44:58;;;;;;;30.88;14.80;;;5.40;99.90;;;;;;6175500;23;20534;-80
2023/04/07 07:47:25;;;;;;;28.95;14.18;;;5.50;99.90;;;;;;6175220;23;20058;-80
2023/04/07 07:49:52;;;;;;;33.33;15.25;;;5.60;99.90;;;;;;6175945;23;20505;-80
2023/04/07 07:52:20;;;;;;;30.13;13.85;;;5.50;99.90;;;;;;6180830;23;20522;-81
2023/04/07 07:54:48;;;;;;;29.98;15.18;;;5.50;99.90;;;;;;6175439;23;20024;-81
2023/04/07 07:57:15;;;;;;;33.25;15.82;;;5.50;99.90;;;;;;6174830;23;20275;-80
2023/04/07 07:59:43;;;;;;;31.38;14.02;;;4.80;99.90;;;;;;6175965;23;20024;-80
2023/04/07 08:02:10;;;;;;;35.17;16.30;;;5.50;99.90;;;;;;6183650;23;20024;-80
2023/04/07 08:04:37;;;;;;;30.23;15.27;;;5.60;99.90;;;;;;6178853;23;20111;-80
2023/04/07 08:07:04;;;;;;;35.42;16.65;;;5.50;99.90;;;;;;6180129;23;20310;-80
2023/04/07 08:09:32;;;;;;;32.38;15.48;;;5.50;99.90;;;;;;6177200;23;20027;-81
2023/04/07 08:12:00;;;;;;;55.42;24.33;;;5.50;99.90;;;;;;6174272;23;20208;-80
2023/04/07 08:14:27;;;;;;;37.83;18.05;;;5.50;99.90;;;;;;6176082;23;20367;-80
2023/04/07 08:16:55;;;;;;;34.30;17.67;;;5.50;99.90;;;;;;6176081;23;20024;-80
2023/04/07 08:19:22;;;;;;;33.92;16.30;;;5.50;99.90;;;;;;6196724;23;20019;-80
2023/04/07 08:21:49;;;;;;;38.83;18.02;;;5.50;99.90;;;;;;6175048;23;20501;-80
2023/04/07 08:24:17;;;;;;;33.88;16.17;;;5.50;99.90;;;;;;6176759;23;20352;-80
2023/04/07 08:26:44;;;;;;;32.83;16.48;;;5.60;99.90;;;;;;6204132;23;20028;-81
2023/04/07 08:29:12;;;;;;;31.77;16.30;;;5.50;99.90;;;;;;6176642;23;20526;-80
2023/04/07 08:31:40;;;;;;;30.42;14.85;;;5.50;99.90;;;;;;6179437;23;20040;-79
2023/04/07 08:34:07;;;;;;;29.65;15.05;;;5.50;99.90;;;;;;6171690;23;20024;-80
2023/04/07 08:36:34;;;;;;;32.53;16.05;;;5.60;99.90;;;;;;6169799;23;20084;-80
2023/04/07 08:39:04;;;;;;;34.45;16.27;;;5.70;99.90;;;;;;6171664;23;20596;-80
2023/04/07 08:41:40;;;;;;;38.08;16.80;;;5.70;99.90;;;;;;6171370;23;20083;-80
2023/04/07 08:44:10;;;;;;;34.17;16.42;;;5.70;99.90;;;;;;6172846;23;20029;-80
2023/04/07 08:46:40;;;;;;;33.35;16.85;;;5.60;99.90;;;;;;6198559;23;20048;-80
2023/04/07 08:49:10;;;;;;;35.38;16.80;;;5.60;99.90;;;;;;6176020;23;20020;-80
2023/04/07 08:51:43;;;;;;;32.38;15.23;;;5.70;99.90;;;;;;6173274;23;20078;-80
2023/04/07 08:54:15;;;;;;;31.65;15.70;;;6.50;99.90;;;;;;6171788;23;20348;-79
2023/04/07 08:56:42;;;;;;;32.80;15.45;;;6.00;99.90;;;;;;6174792;23;20021;-80
2023/04/07 08:59:12;;;;;;;30.30;14.43;;;6.20;99.90;;;;;;6170223;23;20090;-80
2023/04/07 09:01:40;;;;;;;33.05;16.83;;;6.40;99.90;;;;;;6171093;23;20025;-81
2023/04/07 09:04:09;;;;;;;31.48;15.35;;;6.50;99.90;;;;;;6197285;23;20767;-81
2023/04/07 09:06:37;;;;;;;34.03;16.65;;;6.40;99.90;;;;;;6172969;23;20025;-80
2023/04/07 09:09:07;;;;;;;33.22;15.75;;;6.30;99.90;;;;;;6178191;23;20024;-80
2023/04/07 09:11:36;;;;;;;31.38;15.50;;;6.40;99.90;;;;;;6197945;23;20035;-80
2023/04/07 09:14:04;;;;;;;31.67;15.60;;;6.40;99.90;;;;;;6172972;23;20021;-81
2023/04/07 09:16:31;;;;;;;35.03;15.30;;;6.30;99.90;;;;;;6171913;23;20048;-80
2023/04/07 09:18:58;;;;;;;37.30;17.30;;;6.30;99.90;;;;;;6170542;23;20025;-81
2023/04/07 09:21:26;;;;;;;32.40;14.93;;;6.30;99.90;;;;;;6172748;23;20075;-81
2023/04/07 09:23:53;;;;;;;32.60;15.88;;;6.10;99.90;;;;;;6183763;23;20028;-81
2023/04/07 09:26:24;;;;;;;36.60;15.50;;;6.10;99.90;;;;;;6183062;23;20031;-81
2023/04/07 09:29:01;;;;;;;31.90;15.65;;;6.20;99.90;;;;;;6172869;23;20456;-81
2023/04/07 09:31:46;;;;;;;34.92;16.92;;;6.20;99.90;;;;;;6175210;23;20047;-81
2023/04/07 09:34:33;;;;;;;30.92;15.15;;;6.20;99.90;;;;;;6174816;23;20028;-80
2023/04/07 09:37:01;;;;;;;33.20;15.20;;;6.30;99.90;;;;;;6171071;23;20507;-81
2023/04/07 09:39:28;;;;;;;30.58;16.42;;;6.30;99.90;;;;;;6172327;23;20016;-81
2023/04/07 09:41:56;;;;;;;31.73;15.85;;;6.30;99.90;;;;;;6172831;23;20031;-81
2023/04/07 09:44:25;;;;;;;35.00;15.52;;;6.30;99.90;;;;;;6173655;23;20025;-81
2023/04/07 09:46:57;;;;;;;32.97;16.05;;;6.20;99.90;;;;;;6173542;23;20139;-80
2023/04/07 09:49:25;;;;;;;33.72;16.70;;;6.20;99.90;;;;;;6170843;23;20126;-80
2023/04/07 09:51:58;;;;;;;44.03;22.08;;;6.10;99.90;;;;;;6175917;23;20047;-80
2023/04/07 09:54:37;;;;;;;53.95;23.58;;;5.30;99.90;;;;;;6172688;23;20055;-81
2023/04/07 09:57:06;;;;;;;192.07;74.95;;;6.10;99.90;;;;;;6173418;23;20016;-80
2023/04/07 09:59:44;;;;;;;43.38;20.85;;;6.20;99.90;;;;;;6175614;23;20103;-81
2023/04/07 10:02:11;;;;;;;45.53;22.73;;;6.10;99.90;;;;;;6174088;23;20021;-81
2023/04/07 10:04:40;;;;;;;48.88;26.52;;;6.20;99.90;;;;;;6175807;23;20036;-80
2023/04/07 10:07:07;;;;;;;34.97;17.15;;;6.20;99.90;;;;;;6173503;23;20024;-80
2023/04/07 10:09:34;;;;;;;34.75;17.35;;;6.20;99.90;;;;;;6177905;23;20038;-81
2023/04/07 10:12:02;;;;;;;35.72;17.30;;;6.20;99.90;;;;;;6173650;23;20028;-80
2023/04/07 10:14:32;;;;;;;31.58;16.88;;;6.20;99.90;;;;;;6176534;23;20027;-80
2023/04/07 10:17:00;;;;;;;32.80;16.48;;;6.20;99.90;;;;;;6179968;23;20020;-80
2023/04/07 10:19:32;;;;;;;37.95;18.10;;;6.20;99.90;;;;;;6176027;23;20053;-80
2023/04/07 10:22:02;;;;;;;31.33;15.80;;;6.30;99.90;;;;;;6177162;23;20435;-80
2023/04/07 10:24:59;;;;;;;37.13;16.60;;;6.30;99.90;;;;;;6175900;23;20021;-80
2023/04/07 10:27:36;;;;;;;34.72;16.27;;;6.30;99.90;;;;;;6176312;23;20390;-80
2023/04/07 10:30:10;;;;;;;33.67;17.20;;;6.30;99.90;;;;;;6176785;23;20044;-80
2023/04/07 10:32:48;;;;;;;33.42;17.40;;;6.40;99.90;;;;;;6175330;23;20028;-81
2023/04/07 10:35:16;;;;;;;32.15;15.80;;;6.30;99.90;;;;;;6179599;23;20029;-81
2023/04/07 10:38:06;;;;;;;33.17;17.65;;;6.90;99.90;;;;;;6177159;23;20025;-80
2023/04/07 10:40:35;;;;;;;34.63;17.85;;;6.30;99.90;;;;;;6179250;23;20447;-81
2023/04/07 10:43:08;;;;;;;32.95;17.17;;;6.50;99.90;;;;;;6173761;23;20020;-81
2023/04/07 10:45:47;;;;;;;35.67;16.55;;;6.70;99.90;;;;;;6173648;23;20448;-81
2023/04/07 10:48:16;;;;;;;31.00;16.27;;;6.70;99.90;;;;;;6173648;23;20030;-80
2023/04/07 10:50:45;;;;;;;35.63;16.85;;;6.80;99.90;;;;;;6177765;23;20086;-80
2023/04/07 10:53:14;;;;;;;33.45;17.77;;;6.70;99.90;;;;;;6173433;23;20071;-80
2023/04/07 10:55:45;;;;;;;36.60;18.23;;;6.70;99.90;;;;;;6182057;23;20017;-80
2023/04/07 10:58:20;;;;;;;30.02;16.35;;;6.90;99.90;;;;;;6173568;23;20020;-80
2023/04/07 11:01:03;;;;;;;32.85;16.27;;;7.00;99.90;;;;;;6199492;23;20024;-81
2023/04/07 11:03:32;;;;;;;;;;;6.90;99.90;;;;;;6175169;23;20026;-81
2023/04/07 11:06:11;;;;;;;32.60;15.65;;;6.80;99.90;;;;;;6191829;23;19920;-82
2023/04/07 11:08:46;;;;;;;32.47;15.60;;;7.00;99.90;;;;;;6176484;23;20054;-82
2023/04/07 11:12:01;;;;;;;32.83;16.65;;;7.00;99.90;;;;;;6187241;23;20024;-82
2023/04/07 11:14:33;;;;;;;31.70;14.27;;;6.90;99.90;;;;;;6148509;23;20075;-83
2023/04/07 11:17:02;;;;;;;32.88;14.80;;;6.90;99.90;;;;;;6146591;23;20053;-83
2023/04/07 11:19:50;;;;;;;31.23;15.73;;;6.80;99.90;;;;;;6143869;23;20132;-81
2023/04/07 11:22:17;;;;;;;29.27;15.30;;;6.70;99.70;;;;;;6146010;23;20120;-82
2023/04/07 11:24:47;;;;;;;29.85;15.07;;;6.70;99.80;;;;;;6143153;23;20047;-81
2023/04/07 11:27:15;;;;;;;29.77;14.15;;;6.80;99.90;;;;;;6141414;23;20028;-81
2023/04/07 11:29:42;;;;;;;31.67;14.95;;;6.90;99.90;;;;;;6165829;23;20428;-81
2023/04/07 11:32:11;;;;;;;27.20;13.88;;;6.90;99.90;;;;;;6141828;23;20587;-81
2023/04/07 11:34:39;;;;;;;25.60;12.73;;;7.00;99.90;;;;;;6137223;23;20116;-81
2023/04/07 11:37:27;;;;;;;28.88;14.43;;;7.10;99.80;;;;;;6087047;23;20100;-81
2023/04/07 11:39:56;;;;;;;28.55;13.82;;;7.10;99.90;;;;;;6114132;23;20057;-81
2023/04/07 11:42:41;;;;;;;28.50;13.50;;;6.30;99.90;;;;;;6118759;23;20036;-80
2023/04/07 11:45:20;;;;;;;29.52;14.20;;;7.20;99.50;;;;;;6134688;23;20128;-81
2023/04/07 11:47:49;;;;;;;30.73;15.30;;;7.30;99.70;;;;;;6149897;23;20024;-81
2023/04/07 11:50:36;;;;;;;27.85;14.13;;;7.20;99.60;;;;;;6149555;23;20028;-82
2023/04/07 11:53:03;;;;;;;26.20;13.00;;;7.30;99.30;;;;;;6149033;23;20118;-81
2023/04/07 11:55:30;;;;;;;26.25;13.15;;;7.30;99.40;;;;;;6182298;23;20461;-81
2023/04/07 11:58:10;;;;;;;27.27;14.23;;;7.30;99.10;;;;;;6175520;23;20044;-81
2023/04/07 12:00:56;;;;;;;25.17;12.82;;;7.30;99.10;;;;;;6149081;23;20401;-81
2023/04/07 12:03:23;;;;;;;26.35;13.02;;;7.30;98.30;;;;;;6149464;23;20352;-81
2023/04/07 12:05:51;;;;;;;26.42;12.75;;;7.60;98.60;;;;;;6147459;23;20103;-81
2023/04/07 12:08:18;;;;;;;28.10;13.30;;;7.20;97.40;;;;;;6154840;23;20504;-81
2023/04/07 12:10:46;;;;;;;28.73;14.82;;;7.30;97.20;;;;;;6150113;23;20472;-81
2023/04/07 12:13:13;;;;;;;34.28;19.20;;;7.30;97.60;;;;;;6154535;23;20470;-81
2023/04/07 12:15:41;;;;;;;31.98;16.42;;;7.30;97.00;;;;;;6153489;23;20028;-81
2023/04/07 12:18:13;;;;;;;29.83;15.55;;;7.30;96.80;;;;;;6148247;23;20027;-81
2023/04/07 12:20:41;;;;;;;28.67;15.50;;;7.50;96.50;;;;;;6150820;23;20103;-82
2023/04/07 12:23:08;;;;;;;27.27;13.35;;;7.40;96.80;;;;;;6177633;23;20017;-82
2023/04/07 12:25:35;;;;;;;26.80;13.50;;;7.30;97.00;;;;;;6149458;23;20012;-81
2023/04/07 12:28:03;;;;;;;26.63;13.73;;;7.60;98.10;;;;;;6171816;23;20047;-81
2023/04/07 12:30:30;;;;;;;27.10;13.98;;;7.60;97.50;;;;;;6150620;23;20024;-81
2023/04/07 12:32:57;;;;;;;27.48;12.77;;;7.70;97.30;;;;;;6177218;23;20486;-81
2023/04/07 12:35:25;;;;;;;25.17;12.73;;;7.70;96.30;;;;;;6167850;23;20020;-82
2023/04/07 12:37:53;;;;;;;24.35;12.40;;;7.60;95.80;;;;;;6149697;23;20024;-81
2023/04/07 12:40:21;;;;;;;25.55;12.18;;;7.80;95.70;;;;;;6149763;23;20511;-81
2023/04/07 12:42:48;;;;;;;26.35;12.77;;;7.70;95.10;;;;;;6173584;23;20020;-81
2023/04/07 12:45:15;;;;;;;25.88;13.43;;;7.80;96.50;;;;;;6176081;23;20408;-81
2023/04/07 12:47:43;;;;;;;70.43;31.48;;;7.80;95.50;;;;;;6173614;23;20436;-81
2023/04/07 12:50:11;;;;;;;29.02;14.82;;;7.90;95.90;;;;;;6172904;23;20034;-80
2023/04/07 12:52:38;;;;;;;23.55;12.30;;;8.00;96.30;;;;;;6173400;23;20034;-80
2023/04/07 12:55:05;;;;;;;26.92;12.55;;;7.90;95.50;;;;;;6172927;23;20025;-80